createdAt,value
2017-05-09T00:00:15.000Z,0
2017-05-09T00:01:23.058Z,0
2017-05-09T00:02:31.146Z,0
2017-05-09T00:03:39.242Z,0
2017-05-09T00:04:47.323Z,0
2017-05-09T00:05:56.363Z,0
2017-05-09T00:07:03.497Z,0
2017-05-09T00:08:11.585Z,0
2017-05-09T00:09:19.671Z,0
2017-05-09T00:10:27.759Z,0
2017-05-09T00:11:35.855Z,0
2017-05-09T00:12:43.934Z,0
2017-05-09T00:13:52.101Z,0
2017-05-09T00:15:00.107Z,0
2017-05-09T00:16:08.199Z,0
2017-05-09T00:17:16.294Z,0
2017-05-09T00:18:24.380Z,0
2017-05-09T00:19:32.470Z,0
2017-05-09T00:20:40.554Z,0
2017-05-09T00:21:48.643Z,0
2017-05-09T00:22:56.730Z,0
2017-05-09T00:24:04.815Z,0
2017-05-09T00:25:12.911Z,0
2017-05-09T00:26:20.989Z,0
2017-05-09T00:27:29.078Z,0
2017-05-09T00:28:37.166Z,0
2017-05-09T00:29:45.253Z,0
2017-05-09T00:30:53.337Z,0
2017-05-09T00:32:01.425Z,0
2017-05-09T00:33:09.509Z,0
2017-05-09T00:34:17.597Z,0
2017-05-09T00:35:25.685Z,0
2017-05-09T00:36:33.770Z,0
2017-05-09T00:37:41.870Z,0
2017-05-09T00:38:49.973Z,0
2017-05-09T00:39:58.036Z,0
2017-05-09T00:41:06.131Z,0
2017-05-09T00:42:14.206Z,0
2017-05-09T00:43:22.294Z,0
2017-05-09T00:44:30.379Z,0
2017-05-09T00:45:38.467Z,0
2017-05-09T00:46:46.557Z,0
2017-05-09T00:47:54.643Z,0
2017-05-09T00:49:02.731Z,0
2017-05-09T00:50:10.816Z,0
2017-05-09T00:51:18.904Z,0
2017-05-09T00:52:27.015Z,0
2017-05-09T00:53:35.077Z,0
2017-05-09T00:54:43.164Z,0
2017-05-09T00:55:51.252Z,0
2017-05-09T00:56:59.337Z,0
2017-05-09T00:58:07.423Z,0
2017-05-09T00:59:15.513Z,0
2017-05-09T01:00:23.598Z,0
2017-05-09T01:01:31.686Z,0
2017-05-09T01:02:39.772Z,0
2017-05-09T01:03:47.883Z,0
2017-05-09T01:04:55.945Z,0
2017-05-09T01:06:04.037Z,0
2017-05-09T01:07:12.121Z,0
2017-05-09T01:08:20.215Z,0
2017-05-09T01:09:28.302Z,0
2017-05-09T01:10:36.387Z,0
2017-05-09T01:11:44.473Z,0
2017-05-09T01:12:52.561Z,0
2017-05-09T01:14:00.646Z,0
2017-05-09T01:15:08.733Z,0
2017-05-09T01:16:16.821Z,0
2017-05-09T01:17:24.917Z,0
2017-05-09T01:18:32.996Z,0
2017-05-09T01:19:41.139Z,0
2017-05-09T01:20:49.180Z,0
2017-05-09T01:21:57.254Z,0
2017-05-09T01:23:05.339Z,0
2017-05-09T01:24:13.425Z,0
2017-05-09T01:25:21.512Z,0
2017-05-09T01:26:29.599Z,0
2017-05-09T01:27:37.687Z,0
2017-05-09T01:28:45.774Z,0
2017-05-09T01:29:53.865Z,0
2017-05-09T01:31:01.955Z,0
2017-05-09T01:32:10.035Z,0
2017-05-09T01:33:18.124Z,0
2017-05-09T01:34:26.207Z,0
2017-05-09T01:35:34.294Z,0
2017-05-09T01:36:42.387Z,0
2017-05-09T01:37:50.474Z,0
2017-05-09T01:38:58.568Z,0
2017-05-09T01:40:06.675Z,0
2017-05-09T01:41:14.741Z,0
2017-05-09T01:42:22.882Z,0
2017-05-09T01:43:30.914Z,0
2017-05-09T01:44:39.002Z,0
2017-05-09T01:45:47.085Z,0
2017-05-09T01:46:55.174Z,0
2017-05-09T01:48:03.260Z,0
2017-05-09T01:49:11.345Z,0
2017-05-09T01:50:19.437Z,0
2017-05-09T01:51:27.517Z,0
2017-05-09T01:52:35.612Z,0
2017-05-09T01:53:43.693Z,0
2017-05-09T01:54:51.787Z,0
2017-05-09T01:55:59.866Z,0
2017-05-09T01:57:07.953Z,0
2017-05-09T01:58:16.062Z,0
2017-05-09T01:59:24.128Z,0
2017-05-09T02:00:32.211Z,0
2017-05-09T02:01:40.296Z,0
2017-05-09T02:02:48.383Z,0
2017-05-09T02:03:56.469Z,0
2017-05-09T02:05:04.561Z,0
2017-05-09T02:06:12.642Z,0
2017-05-09T02:07:20.731Z,0
2017-05-09T02:08:28.843Z,0
2017-05-09T02:09:36.925Z,0
2017-05-09T02:10:44.989Z,0
2017-05-09T02:11:53.076Z,0
2017-05-09T02:13:01.169Z,0
2017-05-09T02:14:09.247Z,0
2017-05-09T02:15:17.335Z,0
2017-05-09T02:16:25.423Z,0
2017-05-09T02:17:33.507Z,0
2017-05-09T02:18:41.598Z,0
2017-05-09T02:19:49.681Z,0
2017-05-09T02:20:57.764Z,0
2017-05-09T02:22:05.853Z,0
2017-05-09T02:23:13.940Z,0
2017-05-09T02:24:22.027Z,0
2017-05-09T02:25:30.113Z,0
2017-05-09T02:26:38.200Z,0
2017-05-09T02:27:46.287Z,0
2017-05-09T02:28:54.370Z,0
2017-05-09T02:30:02.456Z,0
2017-05-09T02:31:10.543Z,0
2017-05-09T02:32:18.627Z,0
2017-05-09T02:33:26.715Z,0
2017-05-09T02:34:34.804Z,0
2017-05-09T02:35:42.890Z,0
2017-05-09T02:36:50.975Z,0
2017-05-09T02:37:59.061Z,0
2017-05-09T02:39:07.147Z,0
2017-05-09T02:40:15.234Z,0
2017-05-09T02:41:23.316Z,0
2017-05-09T02:42:31.405Z,0
2017-05-09T02:43:39.491Z,0
2017-05-09T02:44:47.578Z,0
2017-05-09T02:45:55.663Z,0
2017-05-09T02:47:03.750Z,0
2017-05-09T02:48:11.835Z,0
2017-05-09T02:49:19.922Z,0
2017-05-09T02:50:28.008Z,0
2017-05-09T02:51:36.094Z,0
2017-05-09T02:52:44.179Z,0
2017-05-09T02:53:52.267Z,0
2017-05-09T02:55:00.352Z,0
2017-05-09T02:56:08.437Z,0
2017-05-09T02:57:16.525Z,0
2017-05-09T02:58:24.611Z,0
2017-05-09T02:59:32.696Z,0
2017-05-09T03:00:40.778Z,0
2017-05-09T03:01:48.892Z,0
2017-05-09T03:02:56.977Z,0
2017-05-09T03:04:05.039Z,0
2017-05-09T03:05:13.131Z,0
2017-05-09T03:06:21.235Z,0
2017-05-09T03:07:29.296Z,0
2017-05-09T03:08:37.380Z,0
2017-05-09T03:09:45.466Z,0
2017-05-09T03:10:53.552Z,0
2017-05-09T03:12:01.668Z,0
2017-05-09T03:13:09.732Z,0
2017-05-09T03:14:17.817Z,0
2017-05-09T03:15:25.902Z,0
2017-05-09T03:16:33.989Z,0
2017-05-09T03:17:42.088Z,0
2017-05-09T03:18:50.173Z,0
2017-05-09T03:19:58.251Z,0
2017-05-09T03:21:06.363Z,0
2017-05-09T03:22:14.426Z,0
2017-05-09T03:23:22.510Z,0
2017-05-09T03:24:30.598Z,0
2017-05-09T03:25:38.684Z,0
2017-05-09T03:26:46.792Z,0
2017-05-09T03:27:54.910Z,0
2017-05-09T03:29:02.948Z,0
2017-05-09T03:30:11.025Z,0
2017-05-09T03:31:19.112Z,0
2017-05-09T03:32:27.200Z,0
2017-05-09T03:33:35.281Z,0
2017-05-09T03:34:43.370Z,0
2017-05-09T03:35:51.456Z,0
2017-05-09T03:36:59.537Z,0
2017-05-09T03:38:07.632Z,0
2017-05-09T03:39:15.711Z,0
2017-05-09T03:40:23.819Z,0
2017-05-09T03:41:31.894Z,0
2017-05-09T03:42:40.005Z,0
2017-05-09T03:43:48.057Z,0
2017-05-09T03:44:56.140Z,0
2017-05-09T03:46:04.223Z,0
2017-05-09T03:47:12.310Z,0
2017-05-09T03:48:20.394Z,0
2017-05-09T03:49:28.481Z,0
2017-05-09T03:50:36.568Z,0
2017-05-09T03:51:44.654Z,0
2017-05-09T03:52:52.742Z,0
2017-05-09T03:54:00.836Z,0
2017-05-09T03:55:08.909Z,0
2017-05-09T03:56:16.996Z,0
2017-05-09T03:57:25.079Z,0
2017-05-09T03:58:33.168Z,0
2017-05-09T03:59:41.306Z,0
2017-05-09T04:00:49.339Z,0
2017-05-09T04:01:57.423Z,0
2017-05-09T04:03:05.509Z,0
2017-05-09T04:04:13.592Z,0
2017-05-09T04:05:21.681Z,0
2017-05-09T04:06:29.769Z,0
2017-05-09T04:07:37.847Z,0
2017-05-09T04:08:45.945Z,0
2017-05-09T04:09:54.021Z,0
2017-05-09T04:11:02.126Z,0
2017-05-09T04:12:10.196Z,0
2017-05-09T04:13:18.277Z,0
2017-05-09T04:14:26.362Z,4
2017-05-09T04:15:34.447Z,4
2017-05-09T04:16:42.533Z,0
2017-05-09T04:17:50.620Z,0
2017-05-09T04:18:58.706Z,0
2017-05-09T04:20:06.800Z,0
2017-05-09T04:21:14.902Z,0
2017-05-09T04:22:22.973Z,0
2017-05-09T04:23:31.056Z,0
2017-05-09T04:24:39.139Z,4
2017-05-09T04:25:47.224Z,4
2017-05-09T04:26:55.311Z,4
2017-05-09T04:28:03.396Z,4
2017-05-09T04:29:11.484Z,0
2017-05-09T04:30:19.569Z,0
2017-05-09T04:31:27.657Z,0
2017-05-09T04:32:35.737Z,0
2017-05-09T04:33:43.826Z,0
2017-05-09T04:34:51.909Z,0
2017-05-09T04:35:59.993Z,4
2017-05-09T04:37:08.079Z,4
2017-05-09T04:38:16.163Z,4
2017-05-09T04:39:24.251Z,4
2017-05-09T04:40:32.334Z,4
2017-05-09T04:41:40.419Z,0
2017-05-09T04:42:48.505Z,4
2017-05-09T04:43:56.590Z,0
2017-05-09T04:45:04.678Z,4
2017-05-09T04:46:12.796Z,4
2017-05-09T04:47:20.845Z,4
2017-05-09T04:48:28.932Z,0
2017-05-09T04:49:37.021Z,0
2017-05-09T04:50:45.164Z,4
2017-05-09T04:51:53.188Z,4
2017-05-09T04:53:01.270Z,4
2017-05-09T04:54:09.357Z,4
2017-05-09T04:55:17.440Z,4
2017-05-09T04:56:25.528Z,4
2017-05-09T04:57:33.612Z,4
2017-05-09T04:58:41.705Z,4
2017-05-09T04:59:49.787Z,4
2017-05-09T05:00:57.869Z,4
2017-05-09T05:02:05.958Z,4
2017-05-09T05:03:14.042Z,8
2017-05-09T05:04:22.134Z,4
2017-05-09T05:05:30.216Z,4
2017-05-09T05:06:38.383Z,4
2017-05-09T05:07:46.386Z,4
2017-05-09T05:08:54.471Z,4
2017-05-09T05:10:02.557Z,4
2017-05-09T05:11:10.642Z,4
2017-05-09T05:12:18.795Z,8
2017-05-09T05:13:26.820Z,4
2017-05-09T05:14:34.920Z,4
2017-05-09T05:15:43.108Z,8
2017-05-09T05:16:51.076Z,8
2017-05-09T05:17:59.164Z,4
2017-05-09T05:19:07.246Z,4
2017-05-09T05:20:15.334Z,4
2017-05-09T05:21:23.427Z,8
2017-05-09T05:22:31.499Z,8
2017-05-09T05:23:39.583Z,8
2017-05-09T05:24:47.701Z,8
2017-05-09T05:25:55.803Z,8
2017-05-09T05:27:04.920Z,8
2017-05-09T05:28:11.932Z,8
2017-05-09T05:29:21.309Z,8
2017-05-09T05:30:28.100Z,8
2017-05-09T05:31:36.196Z,8
2017-05-09T05:32:44.287Z,8
2017-05-09T05:33:52.372Z,8
2017-05-09T05:35:00.457Z,8
2017-05-09T05:37:18.239Z,12
2017-05-09T05:38:26.321Z,12
2017-05-09T05:39:34.406Z,12
2017-05-09T05:40:42.491Z,8
2017-05-09T05:41:50.575Z,12
2017-05-09T05:42:58.671Z,12
2017-05-09T05:44:06.762Z,12
2017-05-09T05:45:14.868Z,12
2017-05-09T05:46:22.993Z,12
2017-05-09T05:47:31.022Z,16
2017-05-09T05:48:39.104Z,16
2017-05-09T05:49:47.185Z,12
2017-05-09T05:50:55.270Z,12
2017-05-09T05:52:03.354Z,12
2017-05-09T05:53:11.441Z,12
2017-05-09T05:54:19.525Z,12
2017-05-09T05:55:27.610Z,12
2017-05-09T05:56:35.694Z,8
2017-05-09T05:57:43.779Z,8
2017-05-09T05:58:51.887Z,8
2017-05-09T05:59:59.951Z,12
2017-05-09T06:01:08.040Z,12
2017-05-09T06:02:16.135Z,12
2017-05-09T06:03:24.221Z,12
2017-05-09T06:04:32.292Z,16
2017-05-09T06:05:40.567Z,16
2017-05-09T06:06:48.459Z,12
2017-05-09T06:07:56.546Z,16
2017-05-09T06:09:04.636Z,12
2017-05-09T06:10:12.735Z,12
2017-05-09T06:11:20.805Z,12
2017-05-09T06:12:28.890Z,12
2017-05-09T06:13:36.977Z,12
2017-05-09T06:14:45.070Z,16
2017-05-09T06:15:53.167Z,16
2017-05-09T06:17:01.259Z,12
2017-05-09T06:18:09.345Z,12
2017-05-09T06:19:17.432Z,12
2017-05-09T06:20:25.516Z,12
2017-05-09T06:21:33.607Z,12
2017-05-09T06:22:41.718Z,16
2017-05-09T06:23:49.796Z,12
2017-05-09T06:24:57.871Z,12
2017-05-09T06:26:06.045Z,12
2017-05-09T06:27:14.055Z,12
2017-05-09T06:28:22.134Z,12
2017-05-09T06:29:30.201Z,12
2017-05-09T06:30:38.284Z,12
2017-05-09T06:31:46.369Z,12
2017-05-09T06:32:54.456Z,12
2017-05-09T06:34:02.545Z,8
2017-05-09T06:35:10.623Z,12
2017-05-09T06:36:18.707Z,8
2017-05-09T06:37:26.797Z,16
2017-05-09T06:38:34.892Z,16
2017-05-09T06:39:42.968Z,16
2017-05-09T06:40:51.059Z,16
2017-05-09T06:41:59.268Z,16
2017-05-09T06:43:07.255Z,20
2017-05-09T06:44:15.311Z,16
2017-05-09T06:45:23.396Z,20
2017-05-09T06:46:31.480Z,16
2017-05-09T06:47:39.565Z,16
2017-05-09T06:48:47.652Z,20
2017-05-09T06:49:55.735Z,20
2017-05-09T06:51:04.822Z,20
2017-05-09T06:52:11.905Z,24
2017-05-09T06:53:19.992Z,20
2017-05-09T06:54:28.087Z,24
2017-05-09T06:55:36.176Z,24
2017-05-09T06:56:44.242Z,24
2017-05-09T06:57:52.330Z,24
2017-05-09T06:59:00.415Z,20
2017-05-09T07:00:08.503Z,24
2017-05-09T07:01:16.585Z,24
2017-05-09T07:02:24.675Z,24
2017-05-09T07:03:32.757Z,24
2017-05-09T07:04:40.851Z,24
2017-05-09T07:05:48.933Z,24
2017-05-09T07:06:57.018Z,24
2017-05-09T07:08:05.105Z,24
2017-05-09T07:09:13.187Z,24
2017-05-09T07:10:21.273Z,28
2017-05-09T07:11:29.361Z,28
2017-05-09T07:12:37.443Z,28
2017-05-09T07:13:45.527Z,28
2017-05-09T07:14:53.613Z,28
2017-05-09T07:16:01.698Z,24
2017-05-09T07:17:09.784Z,24
2017-05-09T07:18:17.893Z,28
2017-05-09T07:19:25.954Z,28
2017-05-09T07:20:34.038Z,36
2017-05-09T07:21:42.127Z,36
2017-05-09T07:22:50.208Z,28
2017-05-09T07:23:58.292Z,28
2017-05-09T07:25:06.397Z,32
2017-05-09T07:26:14.460Z,32
2017-05-09T07:27:22.544Z,32
2017-05-09T07:28:30.632Z,32
2017-05-09T07:29:38.716Z,32
2017-05-09T07:30:46.804Z,32
2017-05-09T07:31:54.891Z,28
2017-05-09T07:33:02.974Z,28
2017-05-09T07:34:11.061Z,28
2017-05-09T07:35:19.145Z,28
2017-05-09T07:36:27.421Z,32
2017-05-09T07:37:35.312Z,32
2017-05-09T07:38:43.398Z,32
2017-05-09T07:39:51.495Z,32
2017-05-09T07:40:59.574Z,32
2017-05-09T07:42:07.657Z,32
2017-05-09T07:43:15.740Z,28
2017-05-09T07:44:23.831Z,28
2017-05-09T07:45:31.920Z,32
2017-05-09T07:46:40.006Z,32
2017-05-09T07:47:48.091Z,28
2017-05-09T07:48:56.386Z,28
2017-05-09T07:50:04.261Z,28
2017-05-09T07:51:12.348Z,36
2017-05-09T07:52:20.429Z,36
2017-05-09T07:53:28.582Z,40
2017-05-09T07:54:36.600Z,60
2017-05-09T07:55:44.685Z,56
2017-05-09T07:56:52.771Z,48
2017-05-09T07:58:00.865Z,44
2017-05-09T07:59:08.948Z,36
2017-05-09T08:00:17.029Z,32
2017-05-09T08:01:25.116Z,36
2017-05-09T08:02:33.224Z,36
2017-05-09T08:03:41.299Z,32
2017-05-09T08:04:49.375Z,32
2017-05-09T08:05:57.459Z,28
2017-05-09T08:07:05.542Z,28
2017-05-09T08:08:13.627Z,32
2017-05-09T08:09:21.711Z,28
2017-05-09T08:10:29.800Z,32
2017-05-09T08:11:38.012Z,32
2017-05-09T08:12:45.979Z,32
2017-05-09T08:13:54.064Z,28
2017-05-09T08:15:02.156Z,28
2017-05-09T08:16:10.236Z,24
2017-05-09T08:17:18.322Z,24
2017-05-09T08:18:26.405Z,20
2017-05-09T08:19:34.492Z,20
2017-05-09T08:20:42.577Z,16
2017-05-09T08:21:50.662Z,20
2017-05-09T08:22:58.782Z,16
2017-05-09T08:24:06.836Z,16
2017-05-09T08:25:14.946Z,16
2017-05-09T08:26:23.008Z,16
2017-05-09T08:27:31.097Z,12
2017-05-09T08:28:39.177Z,16
2017-05-09T08:29:47.260Z,12
2017-05-09T08:30:55.349Z,12
2017-05-09T08:32:03.431Z,16
2017-05-09T08:33:11.519Z,16
2017-05-09T08:34:19.604Z,20
2017-05-09T08:35:27.689Z,24
2017-05-09T08:36:35.774Z,24
2017-05-09T08:37:43.859Z,24
2017-05-09T08:38:51.945Z,24
2017-05-09T08:40:00.031Z,20
2017-05-09T08:41:08.116Z,16
2017-05-09T08:42:16.202Z,16
2017-05-09T08:43:24.288Z,12
2017-05-09T08:44:32.374Z,16
2017-05-09T08:45:40.457Z,16
2017-05-09T08:46:48.543Z,12
2017-05-09T08:47:56.628Z,12
2017-05-09T08:49:04.715Z,12
2017-05-09T08:50:12.796Z,12
2017-05-09T08:51:20.887Z,12
2017-05-09T08:52:28.972Z,12
2017-05-09T08:53:37.059Z,16
2017-05-09T08:54:45.143Z,16
2017-05-09T08:55:53.228Z,16
2017-05-09T08:57:01.323Z,16
2017-05-09T08:58:09.404Z,16
2017-05-09T08:59:17.491Z,16
2017-05-09T09:00:25.578Z,16
2017-05-09T09:01:33.665Z,12
2017-05-09T09:02:41.749Z,16
2017-05-09T09:03:49.833Z,16
2017-05-09T09:04:57.921Z,20
2017-05-09T09:06:06.002Z,20
2017-05-09T09:07:14.089Z,16
2017-05-09T09:08:22.483Z,16
2017-05-09T09:09:30.259Z,16
2017-05-09T09:10:38.347Z,16
2017-05-09T09:11:46.432Z,20
2017-05-09T09:12:54.518Z,20
2017-05-09T09:14:02.605Z,16
2017-05-09T09:15:10.746Z,20
2017-05-09T09:16:18.777Z,20
2017-05-09T09:17:27.050Z,20
2017-05-09T09:18:34.960Z,20
2017-05-09T09:19:43.051Z,20
2017-05-09T09:20:51.126Z,20
2017-05-09T09:21:59.213Z,24
2017-05-09T09:23:07.327Z,20
2017-05-09T09:24:15.381Z,24
2017-05-09T09:25:23.468Z,24
2017-05-09T09:26:31.555Z,24
2017-05-09T09:27:39.640Z,28
2017-05-09T09:28:47.734Z,28
2017-05-09T09:29:55.813Z,32
2017-05-09T09:31:03.940Z,28
2017-05-09T09:32:11.988Z,28
2017-05-09T09:33:20.093Z,32
2017-05-09T09:34:28.161Z,32
2017-05-09T09:35:36.241Z,32
2017-05-09T09:36:44.327Z,32
2017-05-09T09:37:52.412Z,32
2017-05-09T09:39:00.496Z,32
2017-05-09T09:40:08.586Z,32
2017-05-09T09:41:16.670Z,32
2017-05-09T09:42:24.794Z,28
2017-05-09T09:43:32.847Z,28
2017-05-09T09:44:40.934Z,28
2017-05-09T09:45:49.021Z,28
2017-05-09T09:46:57.107Z,32
2017-05-09T09:48:05.197Z,28
2017-05-09T09:49:13.275Z,28
2017-05-09T09:50:21.361Z,28
2017-05-09T09:51:29.449Z,28
2017-05-09T09:52:37.532Z,24
2017-05-09T09:53:45.616Z,28
2017-05-09T09:54:53.704Z,32
2017-05-09T09:56:01.789Z,32
2017-05-09T09:57:09.875Z,32
2017-05-09T09:58:17.958Z,36
2017-05-09T09:59:26.046Z,32
2017-05-09T10:00:34.130Z,28
2017-05-09T10:01:42.218Z,24
2017-05-09T10:02:50.302Z,20
2017-05-09T10:03:58.394Z,20
2017-05-09T10:05:06.519Z,20
2017-05-09T10:06:14.630Z,16
2017-05-09T10:07:22.646Z,12
2017-05-09T10:08:30.731Z,12
2017-05-09T10:09:38.823Z,12
2017-05-09T10:10:46.908Z,12
2017-05-09T10:11:54.994Z,12
2017-05-09T10:13:03.082Z,12
2017-05-09T10:14:11.168Z,12
2017-05-09T10:15:19.260Z,16
2017-05-09T10:16:27.339Z,16
2017-05-09T10:17:35.425Z,16
2017-05-09T10:18:43.512Z,16
2017-05-09T10:19:51.750Z,16
2017-05-09T10:20:59.681Z,16
2017-05-09T10:22:07.768Z,16
2017-05-09T10:23:15.853Z,20
2017-05-09T10:24:23.949Z,16
2017-05-09T10:25:32.064Z,16
2017-05-09T10:26:40.114Z,20
2017-05-09T10:27:48.198Z,24
2017-05-09T10:28:56.385Z,20
2017-05-09T10:30:04.369Z,24
2017-05-09T10:31:12.454Z,20
2017-05-09T10:32:20.541Z,20
2017-05-09T10:33:28.627Z,24
2017-05-09T10:34:36.713Z,20
2017-05-09T10:35:44.798Z,28
2017-05-09T10:36:52.884Z,24
2017-05-09T10:38:00.970Z,28
2017-05-09T10:39:09.056Z,28
2017-05-09T10:40:17.140Z,28
2017-05-09T10:41:25.227Z,28
2017-05-09T10:42:33.316Z,28
2017-05-09T10:43:41.400Z,28
2017-05-09T10:44:49.484Z,24
2017-05-09T10:45:57.575Z,28
2017-05-09T10:47:05.669Z,28
2017-05-09T10:48:13.768Z,24
2017-05-09T10:49:21.830Z,24
2017-05-09T10:50:29.915Z,24
2017-05-09T10:51:38.009Z,24
2017-05-09T10:52:46.087Z,24
2017-05-09T10:53:54.173Z,24
2017-05-09T10:55:02.260Z,24
2017-05-09T10:56:10.348Z,24
2017-05-09T10:57:18.431Z,24
2017-05-09T10:58:26.530Z,24
2017-05-09T10:59:34.606Z,24
2017-05-09T11:00:42.695Z,24
2017-05-09T11:01:50.776Z,20
2017-05-09T11:02:58.863Z,20
2017-05-09T11:04:06.950Z,20
2017-05-09T11:05:15.061Z,24
2017-05-09T11:06:24.121Z,20
2017-05-09T11:07:31.207Z,20
2017-05-09T11:08:39.292Z,24
2017-05-09T11:09:47.392Z,24
2017-05-09T11:10:55.467Z,24
2017-05-09T11:12:03.550Z,20
2017-05-09T11:13:11.641Z,24
2017-05-09T11:14:19.726Z,24
2017-05-09T11:15:27.931Z,28
2017-05-09T11:16:35.911Z,28
2017-05-09T11:17:44.105Z,32
2017-05-09T11:18:53.066Z,28
2017-05-09T11:20:00.156Z,32
2017-05-09T11:21:08.296Z,32
2017-05-09T11:22:16.327Z,36
2017-05-09T11:23:24.409Z,32
2017-05-09T11:24:32.498Z,32
2017-05-09T11:25:40.585Z,32
2017-05-09T11:26:48.672Z,32
2017-05-09T11:27:56.759Z,32
2017-05-09T11:29:04.854Z,36
2017-05-09T11:30:12.936Z,32
2017-05-09T11:31:21.015Z,36
2017-05-09T11:32:29.113Z,36
2017-05-09T11:33:37.188Z,32
2017-05-09T11:34:45.274Z,32
2017-05-09T11:35:53.360Z,36
2017-05-09T11:37:01.448Z,36
2017-05-09T11:38:09.530Z,40
2017-05-09T11:39:18.618Z,36
2017-05-09T11:40:25.703Z,36
2017-05-09T11:41:33.791Z,40
2017-05-09T11:42:41.876Z,36
2017-05-09T11:43:49.986Z,36
2017-05-09T11:44:58.049Z,36
2017-05-09T11:46:06.137Z,40
2017-05-09T11:47:14.224Z,36
2017-05-09T11:48:22.311Z,36
2017-05-09T11:49:30.393Z,36
2017-05-09T11:50:38.484Z,36
2017-05-09T11:51:46.565Z,36
2017-05-09T11:52:54.667Z,32
2017-05-09T11:54:02.739Z,36
2017-05-09T11:55:10.827Z,36
2017-05-09T11:56:18.920Z,36
2017-05-09T11:57:27.000Z,40
2017-05-09T11:58:35.108Z,36
2017-05-09T11:59:43.171Z,40
2017-05-09T12:00:51.259Z,40
2017-05-09T12:02:00.346Z,36
2017-05-09T12:03:07.429Z,36
2017-05-09T12:04:15.517Z,36
2017-05-09T12:05:23.605Z,36
2017-05-09T12:06:31.690Z,36
2017-05-09T12:07:39.779Z,36
2017-05-09T12:08:47.862Z,40
2017-05-09T12:09:55.950Z,36
2017-05-09T12:11:04.035Z,40
2017-05-09T12:12:12.129Z,40
2017-05-09T12:13:20.210Z,40
2017-05-09T12:14:29.293Z,40
2017-05-09T12:15:36.381Z,40
2017-05-09T12:16:44.470Z,36
2017-05-09T12:17:52.556Z,40
2017-05-09T12:19:00.639Z,40
2017-05-09T12:20:08.728Z,36
2017-05-09T12:21:16.812Z,40
2017-05-09T12:22:24.901Z,40
2017-05-09T12:23:33.041Z,40
2017-05-09T12:24:41.084Z,40
2017-05-09T12:25:49.180Z,40
2017-05-09T12:26:57.256Z,40
2017-05-09T12:28:05.342Z,36
2017-05-09T12:29:13.437Z,40
2017-05-09T12:30:21.516Z,36
2017-05-09T12:31:29.606Z,40
2017-05-09T12:32:37.694Z,44
2017-05-09T12:33:45.784Z,40
2017-05-09T12:34:53.863Z,40
2017-05-09T12:36:01.954Z,40
2017-05-09T12:37:10.073Z,36
2017-05-09T12:38:18.130Z,40
2017-05-09T12:39:26.219Z,36
2017-05-09T12:40:34.310Z,36
2017-05-09T12:41:42.394Z,36
2017-05-09T12:42:50.481Z,32
2017-05-09T12:43:58.568Z,36
2017-05-09T12:45:06.654Z,36
2017-05-09T12:46:14.746Z,40
2017-05-09T12:47:22.830Z,36
2017-05-09T12:48:30.922Z,40
2017-05-09T12:49:39.007Z,36
2017-05-09T12:50:47.092Z,36
2017-05-09T12:51:55.179Z,32
2017-05-09T12:53:03.273Z,28
2017-05-09T12:54:11.360Z,28
2017-05-09T12:55:19.449Z,24
2017-05-09T12:56:27.533Z,24
2017-05-09T12:57:35.620Z,28
2017-05-09T12:58:43.706Z,28
2017-05-09T12:59:51.815Z,28
2017-05-09T13:00:59.879Z,32
2017-05-09T13:02:07.966Z,28
2017-05-09T13:03:16.058Z,28
2017-05-09T13:04:24.153Z,28
2017-05-09T13:05:32.230Z,28
2017-05-09T13:06:40.321Z,28
2017-05-09T13:07:48.406Z,28
2017-05-09T13:08:56.492Z,48
2017-05-09T13:10:04.591Z,36
2017-05-09T13:11:12.668Z,40
2017-05-09T13:12:20.758Z,56
2017-05-09T13:13:28.840Z,40
2017-05-09T13:14:36.929Z,44
2017-05-09T13:15:45.013Z,36
2017-05-09T13:16:53.101Z,28
2017-05-09T13:18:01.185Z,28
2017-05-09T13:19:09.274Z,28
2017-05-09T13:20:17.360Z,24
2017-05-09T13:21:25.446Z,24
2017-05-09T13:22:33.535Z,28
2017-05-09T13:23:41.621Z,28
2017-05-09T13:24:49.706Z,24
2017-05-09T13:25:57.794Z,24
2017-05-09T13:27:05.905Z,24
2017-05-09T13:28:13.966Z,24
2017-05-09T13:29:22.061Z,24
2017-05-09T13:30:30.140Z,24
2017-05-09T13:31:38.227Z,24
2017-05-09T13:32:46.314Z,24
2017-05-09T13:33:54.399Z,24
2017-05-09T13:35:02.487Z,28
2017-05-09T13:36:10.573Z,28
2017-05-09T13:37:18.660Z,28
2017-05-09T13:38:26.745Z,28
2017-05-09T13:39:34.837Z,28
2017-05-09T13:40:42.917Z,28
2017-05-09T13:41:51.004Z,24
2017-05-09T13:42:59.098Z,28
2017-05-09T13:44:07.187Z,24
2017-05-09T13:45:15.329Z,28
2017-05-09T13:46:23.357Z,24
2017-05-09T13:47:31.441Z,24
2017-05-09T13:48:39.533Z,28
2017-05-09T13:49:47.619Z,28
2017-05-09T13:50:55.714Z,28
2017-05-09T13:52:03.791Z,24
2017-05-09T13:53:11.887Z,24
2017-05-09T13:54:19.966Z,24
2017-05-09T13:55:28.052Z,24
2017-05-09T13:56:36.139Z,24
2017-05-09T13:57:44.227Z,24
2017-05-09T13:58:52.313Z,24
2017-05-09T14:00:00.614Z,28
2017-05-09T14:01:08.485Z,24
2017-05-09T14:02:16.574Z,24
2017-05-09T14:03:24.663Z,24
2017-05-09T14:04:32.750Z,24
2017-05-09T14:05:40.904Z,24
2017-05-09T14:06:48.919Z,28
2017-05-09T14:07:57.004Z,28
2017-05-09T14:09:05.117Z,28
2017-05-09T14:10:13.179Z,24
2017-05-09T14:11:21.334Z,24
2017-05-09T14:12:29.364Z,24
2017-05-09T14:13:37.441Z,24
2017-05-09T14:14:45.526Z,28
2017-05-09T14:15:53.613Z,24
2017-05-09T14:17:01.699Z,24
2017-05-09T14:18:09.784Z,20
2017-05-09T14:19:17.873Z,20
2017-05-09T14:20:25.961Z,16
2017-05-09T14:21:34.047Z,16
2017-05-09T14:22:42.136Z,20
2017-05-09T14:23:50.245Z,16
2017-05-09T14:24:58.307Z,24
2017-05-09T14:26:06.392Z,24
2017-05-09T14:27:14.483Z,28
2017-05-09T14:28:22.567Z,24
2017-05-09T14:29:30.655Z,28
2017-05-09T14:30:38.742Z,24
2017-05-09T14:31:46.830Z,20
2017-05-09T14:32:54.915Z,20
2017-05-09T14:34:03.012Z,24
2017-05-09T14:35:11.099Z,24
2017-05-09T14:36:19.190Z,36
2017-05-09T14:37:27.269Z,40
2017-05-09T14:38:35.369Z,28
2017-05-09T14:39:43.443Z,28
2017-05-09T14:40:51.531Z,28
2017-05-09T14:41:59.618Z,24
2017-05-09T14:43:07.702Z,24
2017-05-09T14:44:15.791Z,24
2017-05-09T14:45:23.920Z,28
2017-05-09T14:46:31.965Z,24
2017-05-09T14:47:40.053Z,24
2017-05-09T14:48:48.138Z,24
2017-05-09T14:49:56.344Z,20
2017-05-09T14:51:04.313Z,20
2017-05-09T14:52:12.402Z,20
2017-05-09T14:53:20.491Z,24
2017-05-09T14:54:28.586Z,24
2017-05-09T14:55:36.670Z,24
2017-05-09T14:56:44.784Z,24
2017-05-09T14:57:52.845Z,20
2017-05-09T14:59:00.929Z,16
2017-05-09T15:00:09.019Z,16
2017-05-09T15:01:17.102Z,20
2017-05-09T15:02:25.190Z,16
2017-05-09T15:03:33.274Z,16
2017-05-09T15:04:41.362Z,12
2017-05-09T15:05:49.449Z,12
2017-05-09T15:06:57.538Z,12
2017-05-09T15:08:05.745Z,12
2017-05-09T15:09:13.711Z,12
2017-05-09T15:10:21.797Z,8
2017-05-09T15:11:29.891Z,12
2017-05-09T15:12:37.994Z,16
2017-05-09T15:13:46.113Z,12
2017-05-09T15:14:54.143Z,12
2017-05-09T15:16:02.227Z,12
2017-05-09T15:17:10.316Z,12
2017-05-09T15:18:18.404Z,12
2017-05-09T15:19:26.488Z,16
2017-05-09T15:20:34.575Z,16
2017-05-09T15:21:42.692Z,12
2017-05-09T15:22:50.747Z,16
2017-05-09T15:23:58.835Z,12
2017-05-09T15:25:06.947Z,16
2017-05-09T15:26:15.010Z,12
2017-05-09T15:27:23.095Z,16
2017-05-09T15:28:32.183Z,16
2017-05-09T15:29:39.269Z,16
2017-05-09T15:30:47.356Z,20
2017-05-09T15:31:55.442Z,20
2017-05-09T15:33:03.529Z,16
2017-05-09T15:34:11.617Z,16
2017-05-09T15:35:19.704Z,20
2017-05-09T15:36:27.789Z,20
2017-05-09T15:37:35.876Z,20
2017-05-09T15:38:44.252Z,28
2017-05-09T15:39:52.057Z,32
2017-05-09T15:41:00.132Z,24
2017-05-09T15:42:08.229Z,20
2017-05-09T15:43:16.335Z,24
2017-05-09T15:44:24.405Z,24
2017-05-09T15:45:32.488Z,28
2017-05-09T15:46:40.575Z,24
2017-05-09T15:47:48.661Z,28
2017-05-09T15:48:56.746Z,24
2017-05-09T15:50:04.834Z,28
2017-05-09T15:51:12.977Z,28
2017-05-09T15:52:21.008Z,24
2017-05-09T15:53:29.095Z,28
2017-05-09T15:54:37.206Z,24
2017-05-09T15:55:45.269Z,24
2017-05-09T15:56:53.355Z,16
2017-05-09T15:58:01.441Z,12
2017-05-09T15:59:09.528Z,12
2017-05-09T16:00:17.614Z,16
2017-05-09T16:01:25.702Z,16
2017-05-09T16:02:33.837Z,12
2017-05-09T16:03:41.902Z,12
2017-05-09T16:04:49.962Z,12
2017-05-09T16:05:58.049Z,12
2017-05-09T16:07:06.139Z,12
2017-05-09T16:08:14.220Z,12
2017-05-09T16:09:22.309Z,12
2017-05-09T16:10:30.396Z,12
2017-05-09T16:11:38.487Z,12
2017-05-09T16:12:46.577Z,16
2017-05-09T16:13:54.660Z,20
2017-05-09T16:15:02.746Z,16
2017-05-09T16:16:10.844Z,24
2017-05-09T16:17:18.921Z,20
2017-05-09T16:18:27.006Z,20
2017-05-09T16:19:35.093Z,24
2017-05-09T16:20:43.180Z,24
2017-05-09T16:21:51.268Z,20
2017-05-09T16:22:59.354Z,24
2017-05-09T16:24:07.447Z,20